createdAt,value
2023-04-22T00:02:23.196Z,24.88
2023-04-22T00:04:50.337Z,24.91
2023-04-22T00:07:17.170Z,24.92
2023-04-22T00:09:43.847Z,24.94
2023-04-22T00:12:11.876Z,24.65
2023-04-22T00:14:41.341Z,24.76
2023-04-22T00:17:07.966Z,24.87
2023-04-22T00:19:35.090Z,24.71
2023-04-22T00:22:01.836Z,24.87
2023-04-22T00:24:29.356Z,24.88
2023-04-22T00:26:55.943Z,24.81
2023-04-22T00:29:22.578Z,24.86
2023-04-22T00:31:49.385Z,24.87
2023-04-22T00:34:17.920Z,24.85
2023-04-22T00:36:44.703Z,24.84
2023-04-22T00:39:11.368Z,24.83
2023-04-22T00:41:39.422Z,24.83
2023-04-22T00:44:09.972Z,24.85
2023-04-22T00:46:37.528Z,24.85
2023-04-22T00:49:04.888Z,24.76
2023-04-22T00:51:32.231Z,24.82
2023-04-22T00:53:59.276Z,24.78
2023-04-22T00:56:26.527Z,24.77
2023-04-22T00:58:54.049Z,24.83
2023-04-22T01:01:20.703Z,24.71
2023-04-22T01:03:48.240Z,24.80
2023-04-22T01:06:15.147Z,24.76
2023-04-22T01:08:41.695Z,24.84
2023-04-22T01:11:08.237Z,24.79
2023-04-22T01:13:36.779Z,24.79
2023-04-22T01:16:03.861Z,24.79
2023-04-22T01:18:30.416Z,24.78
2023-04-22T01:20:57.485Z,24.79
2023-04-22T01:23:24.196Z,24.77
2023-04-22T01:25:50.792Z,24.79
2023-04-22T01:28:17.625Z,24.79
2023-04-22T01:30:44.371Z,24.77
2023-04-22T01:33:11.489Z,24.77
2023-04-22T01:35:38.173Z,24.74
2023-04-22T01:38:05.347Z,24.77
2023-04-22T01:40:32.353Z,24.81
2023-04-22T01:43:01.810Z,24.73
2023-04-22T01:45:28.462Z,24.73
2023-04-22T01:47:55.662Z,24.65
2023-04-22T01:50:22.311Z,24.75
2023-04-22T01:52:48.890Z,24.78
2023-04-22T01:55:15.615Z,24.79
2023-04-22T01:57:43.620Z,24.75
2023-04-22T02:00:10.826Z,24.73
2023-04-22T02:02:40.322Z,24.73
2023-04-22T02:05:07.761Z,24.74
2023-04-22T02:07:36.236Z,24.76
2023-04-22T02:10:06.714Z,24.74
2023-04-22T02:12:33.345Z,24.69
2023-04-22T02:14:59.846Z,24.77
2023-04-22T02:17:27.126Z,24.72
2023-04-22T02:19:53.712Z,24.78
2023-04-22T02:22:20.719Z,24.77
2023-04-22T02:24:50.897Z,24.72
2023-04-22T02:27:17.584Z,24.68
2023-04-22T02:29:46.059Z,24.72
2023-04-22T02:32:12.942Z,24.68
2023-04-22T02:34:39.516Z,24.73
2023-04-22T02:37:06.108Z,24.71
2023-04-22T02:39:32.757Z,24.69
2023-04-22T02:41:59.673Z,24.65
2023-04-22T02:44:26.654Z,24.66
2023-04-22T02:46:53.279Z,24.71
2023-04-22T02:49:19.896Z,24.72
2023-04-22T02:51:46.579Z,24.66
2023-04-22T02:54:13.172Z,24.70
2023-04-22T02:56:39.757Z,24.54
2023-04-22T02:59:06.408Z,24.71
2023-04-22T03:01:33.525Z,24.69
2023-04-22T03:04:03.266Z,24.56
2023-04-22T03:06:30.137Z,24.67
2023-04-22T03:08:57.155Z,24.57
2023-04-22T03:11:23.708Z,24.65
2023-04-22T03:13:50.332Z,24.62
2023-04-22T03:16:17.507Z,24.66
2023-04-22T03:18:44.714Z,24.65
2023-04-22T03:21:11.372Z,24.64
2023-04-22T03:23:40.323Z,24.66
2023-04-22T03:26:07.237Z,24.65
2023-04-22T03:28:33.994Z,24.66
2023-04-22T03:31:00.535Z,24.63
2023-04-22T03:33:27.267Z,24.65
2023-04-22T03:36:04.109Z,24.58
2023-04-22T03:38:31.255Z,24.65
2023-04-22T03:40:58.019Z,24.67
2023-04-22T03:43:35.311Z,24.65
2023-04-22T03:46:07.044Z,24.65
2023-04-22T03:48:35.773Z,24.66
2023-04-22T03:51:06.730Z,24.62
2023-04-22T03:53:36.036Z,24.63
2023-04-22T03:56:02.773Z,24.69
2023-04-22T03:58:32.300Z,24.69
2023-04-22T04:01:00.750Z,24.69
2023-04-22T04:03:31.006Z,24.71
2023-04-22T04:05:58.294Z,24.68
2023-04-22T04:08:26.721Z,24.71
2023-04-22T04:10:53.529Z,24.71
2023-04-22T04:13:20.137Z,24.69
2023-04-22T04:16:06.995Z,24.68
2023-04-22T04:18:38.824Z,24.67
2023-04-22T04:21:05.683Z,24.66
2023-04-22T04:23:35.809Z,24.68
2023-04-22T04:26:03.190Z,24.55
2023-04-22T04:28:33.010Z,24.71
2023-04-22T04:31:00.948Z,24.60
2023-04-22T04:33:28.568Z,24.69
2023-04-22T04:35:55.655Z,24.56
2023-04-22T04:38:28.888Z,24.67
2023-04-22T04:40:55.947Z,24.69
2023-04-22T04:43:25.852Z,24.59
2023-04-22T04:46:08.608Z,24.70
2023-04-22T04:48:37.486Z,24.64
2023-04-22T04:51:08.541Z,24.69
2023-04-22T04:53:42.999Z,24.72
2023-04-22T04:56:09.644Z,24.68
2023-04-22T04:58:36.585Z,24.68
2023-04-22T05:01:11.471Z,24.66
2023-04-22T05:03:43.527Z,24.69
2023-04-22T05:06:12.856Z,24.65
2023-04-22T05:08:43.544Z,24.68
2023-04-22T05:11:10.704Z,24.64
2023-04-22T05:13:37.615Z,24.66
2023-04-22T05:16:06.120Z,24.65
2023-04-22T05:18:32.730Z,24.63
2023-04-22T05:21:04.268Z,24.64
2023-04-22T05:23:32.712Z,24.63
2023-04-22T05:26:00.380Z,24.63
2023-04-22T05:28:26.990Z,24.63
2023-04-22T05:30:57.141Z,24.64
2023-04-22T05:33:26.210Z,24.66
2023-04-22T05:35:53.580Z,24.60
2023-04-22T05:38:20.193Z,24.65
2023-04-22T05:40:50.065Z,24.65
2023-04-22T05:43:16.806Z,24.62
2023-04-22T05:45:49.205Z,24.64
2023-04-22T05:48:16.470Z,24.60
2023-04-22T05:50:54.323Z,24.65
2023-04-22T05:53:21.200Z,24.63
2023-04-22T05:55:47.980Z,24.62
2023-04-22T05:58:14.642Z,24.67
2023-04-22T06:00:53.800Z,24.51
2023-04-22T06:03:50.818Z,24.63
2023-04-22T06:06:17.697Z,24.66
2023-04-22T06:08:46.820Z,24.61
2023-04-22T06:11:13.398Z,24.64
2023-04-22T06:13:39.989Z,24.63
2023-04-22T06:18:37.986Z,24.64
2023-04-22T06:21:09.779Z,24.64
2023-04-22T06:23:37.091Z,24.64
2023-04-22T06:26:03.930Z,24.57
2023-04-22T06:28:30.732Z,24.56
2023-04-22T06:31:02.282Z,24.58
2023-04-22T06:33:29.797Z,24.64
2023-04-22T06:35:56.582Z,24.58
2023-04-22T06:38:23.397Z,24.65
2023-04-22T06:41:22.834Z,24.61
2023-04-22T06:43:51.886Z,24.56
2023-04-22T06:46:18.461Z,24.65
2023-04-22T06:49:07.599Z,24.62
2023-04-22T06:52:04.531Z,24.71
2023-04-22T06:54:31.985Z,24.70
2023-04-22T06:56:58.666Z,24.72
2023-04-22T06:59:25.351Z,24.70
2023-04-22T07:01:52.128Z,24.70
2023-04-22T07:04:19.137Z,24.61
2023-04-22T07:06:46.078Z,24.71
2023-04-22T07:09:13.007Z,24.71
2023-04-22T07:11:39.793Z,24.81
2023-04-22T07:14:12.221Z,24.80
2023-04-22T07:16:38.975Z,24.85
2023-04-22T07:19:08.468Z,24.80
2023-04-22T07:21:35.078Z,24.78
2023-04-22T07:24:01.671Z,24.74
2023-04-22T07:26:28.291Z,24.82
2023-04-22T07:28:54.907Z,24.84
2023-04-22T07:31:21.547Z,24.92
2023-04-22T07:33:48.130Z,25.00
2023-04-22T07:36:14.727Z,25.00
2023-04-22T07:38:41.473Z,25.03
2023-04-22T07:41:08.075Z,25.05
2023-04-22T07:43:34.634Z,25.04
2023-04-22T07:46:01.229Z,25.12
2023-04-22T07:48:27.844Z,25.07
2023-04-22T07:50:54.382Z,24.84
2023-04-22T07:53:21.031Z,24.91
2023-04-22T07:55:49.601Z,24.72
2023-04-22T07:58:16.847Z,24.82
2023-04-22T08:00:43.524Z,24.79
2023-04-22T08:03:10.330Z,24.79
2023-04-22T08:05:36.963Z,24.81
2023-04-22T08:08:03.543Z,24.80
2023-04-22T08:10:30.141Z,24.66
2023-04-22T08:12:56.685Z,24.85
2023-04-22T08:15:23.277Z,24.80
2023-04-22T08:17:50.108Z,24.84
2023-04-22T08:20:18.127Z,24.85
2023-04-22T08:22:45.261Z,24.79
2023-04-22T08:25:11.893Z,24.79
2023-04-22T08:27:38.537Z,24.77
2023-04-22T08:30:06.651Z,24.78
2023-04-22T08:32:33.426Z,24.65
2023-04-22T08:35:04.847Z,24.76
2023-04-22T08:37:31.779Z,24.78
2023-04-22T08:39:58.331Z,24.80
2023-04-22T08:42:24.955Z,24.83
2023-04-22T08:44:51.510Z,24.74
2023-04-22T08:47:18.130Z,24.70
2023-04-22T08:49:45.817Z,24.62
2023-04-22T08:52:15.173Z,24.47
2023-04-22T08:54:42.106Z,24.48
2023-04-22T08:57:09.441Z,24.47
2023-04-22T08:59:36.378Z,24.48
2023-04-22T09:02:03.179Z,24.47
2023-04-22T09:04:29.918Z,24.54
2023-04-22T09:06:56.738Z,24.58
2023-04-22T09:09:24.794Z,24.62
2023-04-22T09:11:51.425Z,24.62
2023-04-22T09:14:18.023Z,24.48
2023-04-22T09:16:48.247Z,24.60
2023-04-22T09:19:15.027Z,24.68
2023-04-22T09:21:41.711Z,24.67
2023-04-22T09:24:08.693Z,24.80
2023-04-22T09:26:38.385Z,24.77
2023-04-22T09:29:09.234Z,24.79
2023-04-22T09:31:37.949Z,24.77
2023-04-22T09:34:04.742Z,24.71
2023-04-22T09:36:34.176Z,24.72
2023-04-22T09:39:04.592Z,24.75
2023-04-22T09:41:35.548Z,24.81
2023-04-22T09:44:03.350Z,24.91
2023-04-22T09:46:30.870Z,24.88
2023-04-22T09:48:58.863Z,24.90
2023-04-22T09:51:25.775Z,24.84
2023-04-22T09:54:03.949Z,24.94
2023-04-22T09:56:40.098Z,24.94
2023-04-22T09:59:06.680Z,24.92
2023-04-22T10:01:37.509Z,25.00
2023-04-22T10:04:04.286Z,25.05
2023-04-22T10:06:31.877Z,25.02
2023-04-22T10:08:59.430Z,25.04
2023-04-22T10:11:26.078Z,25.12
2023-04-22T10:13:52.637Z,25.11
2023-04-22T10:16:20.053Z,25.07
2023-04-22T10:18:46.666Z,25.18
2023-04-22T10:21:13.329Z,25.20
2023-04-22T10:23:45.547Z,25.22
2023-04-22T10:26:12.140Z,25.16
2023-04-22T10:28:43.310Z,25.20
2023-04-22T10:31:22.536Z,25.13
2023-04-22T10:33:49.249Z,25.28
2023-04-22T10:36:20.205Z,25.29
2023-04-22T10:38:55.660Z,25.36
2023-04-22T10:41:32.814Z,25.38
2023-04-22T10:44:09.000Z,25.47
2023-04-22T10:46:39.771Z,25.49
2023-04-22T10:49:13.318Z,25.50
2023-04-22T10:51:44.046Z,25.53
2023-04-22T10:54:26.473Z,25.55
2023-04-22T10:57:01.959Z,25.58
2023-04-22T10:59:28.485Z,25.52
2023-04-22T11:01:55.140Z,25.60
2023-04-22T11:04:23.324Z,25.66
2023-04-22T11:07:16.232Z,25.75
2023-04-22T11:09:47.332Z,25.79
2023-04-22T11:12:35.738Z,25.86
2023-04-22T11:15:06.158Z,25.85
2023-04-22T11:17:32.844Z,25.86
2023-04-22T11:19:59.435Z,25.89
2023-04-22T11:22:26.084Z,25.90
2023-04-22T11:24:56.183Z,25.95
2023-04-22T11:27:26.630Z,25.89
2023-04-22T11:30:09.036Z,25.94
2023-04-22T11:32:36.168Z,25.86
2023-04-22T11:35:06.871Z,25.90
2023-04-22T11:37:43.829Z,25.97
2023-04-22T11:40:29.191Z,26.02
2023-04-22T11:42:57.982Z,26.04
2023-04-22T11:45:24.702Z,26.05
2023-04-22T11:47:51.514Z,26.05
2023-04-22T11:50:20.864Z,25.99
2023-04-22T11:52:50.311Z,26.11
2023-04-22T11:55:23.277Z,26.19
2023-04-22T11:57:56.877Z,26.22
2023-04-22T12:00:24.803Z,26.20
2023-04-22T12:02:58.197Z,26.16
2023-04-22T12:05:35.693Z,26.12
2023-04-22T12:08:03.755Z,26.14
2023-04-22T12:10:30.657Z,26.13
2023-04-22T12:12:57.242Z,26.08
2023-04-22T12:15:23.918Z,25.94
2023-04-22T12:17:51.373Z,26.02
2023-04-22T12:20:18.111Z,26.00
2023-04-22T12:22:44.784Z,26.05
2023-04-22T12:25:11.491Z,26.05
2023-04-22T12:27:38.091Z,26.06
2023-04-22T12:30:06.049Z,26.06
2023-04-22T12:32:32.632Z,26.02
2023-04-22T12:34:59.178Z,26.04
2023-04-22T12:37:26.850Z,26.05
2023-04-22T12:39:53.483Z,26.06
2023-04-22T12:42:20.003Z,26.02
2023-04-22T12:44:46.875Z,26.05
2023-04-22T12:47:13.492Z,26.04
2023-04-22T12:49:40.295Z,26.02
2023-04-22T12:52:07.040Z,26.03
2023-04-22T12:54:33.802Z,25.97
2023-04-22T12:57:01.555Z,25.98
2023-04-22T12:59:28.496Z,26.01
2023-04-22T13:01:55.627Z,25.95
2023-04-22T13:04:22.386Z,25.97
2023-04-22T13:06:56.009Z,25.96
2023-04-22T13:09:24.173Z,25.86
2023-04-22T13:11:50.838Z,25.86
2023-04-22T13:14:17.537Z,25.94
2023-04-22T13:16:44.477Z,25.94
2023-04-22T13:19:11.517Z,25.92
2023-04-22T13:21:38.082Z,25.91
2023-04-22T13:24:04.732Z,25.95
2023-04-22T13:26:31.382Z,25.91
2023-04-22T13:28:57.957Z,25.88
2023-04-22T13:31:24.593Z,25.89
2023-04-22T13:33:51.277Z,25.94
2023-04-22T13:36:17.908Z,25.94
2023-04-22T13:38:44.567Z,25.94
2023-04-22T13:41:11.170Z,25.91
2023-04-22T13:43:37.942Z,25.76
2023-04-22T13:46:04.693Z,25.87
2023-04-22T13:48:32.198Z,25.87
2023-04-22T13:50:58.836Z,25.88
2023-04-22T13:53:25.590Z,25.89
2023-04-22T13:55:52.165Z,25.88
2023-04-22T13:58:18.918Z,25.87
2023-04-22T14:00:45.579Z,25.89
2023-04-22T14:03:12.710Z,25.89
2023-04-22T14:05:39.413Z,25.86
2023-04-22T14:08:06.371Z,25.84
2023-04-22T14:10:32.907Z,25.88
2023-04-22T14:12:59.624Z,25.83
2023-04-22T14:15:26.192Z,25.79
2023-04-22T14:17:53.635Z,25.68
2023-04-22T14:20:20.299Z,25.64
2023-04-22T14:22:46.958Z,25.61
2023-04-22T14:25:16.862Z,25.51
2023-04-22T14:27:43.432Z,25.54
2023-04-22T14:30:10.554Z,25.45
2023-04-22T14:32:37.262Z,25.42
2023-04-22T14:35:06.892Z,25.31
2023-04-22T14:37:35.630Z,25.50
2023-04-22T14:40:02.228Z,25.56
2023-04-22T14:42:28.801Z,25.72
2023-04-22T14:44:55.460Z,25.68
2023-04-22T14:47:21.988Z,25.62
2023-04-22T14:49:48.537Z,25.72
2023-04-22T14:52:15.493Z,25.63
2023-04-22T14:54:42.148Z,25.64
2023-04-22T14:57:08.692Z,25.59
2023-04-22T14:59:35.318Z,25.60
2023-04-22T15:02:02.021Z,25.52
2023-04-22T15:04:28.937Z,25.59
2023-04-22T15:06:57.538Z,25.57
2023-04-22T15:09:24.514Z,25.62
2023-04-22T15:11:51.400Z,25.60
2023-04-22T15:14:18.040Z,25.61
2023-04-22T15:16:44.681Z,25.59
2023-04-22T15:19:11.377Z,25.57
2023-04-22T15:21:38.779Z,25.53
2023-04-22T15:24:05.446Z,25.55
2023-04-22T15:26:33.376Z,25.59
2023-04-22T15:29:00.524Z,25.51
2023-04-22T15:31:27.104Z,25.50
2023-04-22T15:33:54.608Z,25.50
2023-04-22T15:36:21.688Z,25.44
2023-04-22T15:38:48.342Z,25.47
2023-04-22T15:41:15.756Z,25.48
2023-04-22T15:43:42.613Z,25.50
2023-04-22T15:46:09.685Z,25.48
2023-04-22T15:48:36.210Z,25.36
2023-04-22T15:51:02.832Z,25.42
2023-04-22T15:53:29.445Z,25.45
2023-04-22T15:55:56.086Z,25.44
2023-04-22T15:58:22.688Z,25.42
2023-04-22T16:00:49.299Z,25.45
2023-04-22T16:03:16.078Z,25.41
2023-04-22T16:05:42.753Z,25.45
2023-04-22T16:08:10.291Z,25.35
2023-04-22T16:10:36.926Z,25.45
2023-04-22T16:13:03.602Z,25.40
2023-04-22T16:15:30.296Z,25.42
2023-04-22T16:17:56.996Z,25.44
2023-04-22T16:20:24.145Z,25.49
2023-04-22T16:22:50.784Z,25.44
2023-04-22T16:25:17.823Z,25.37
2023-04-22T16:27:44.358Z,25.47
2023-04-22T16:30:12.088Z,25.43
2023-04-22T16:32:39.883Z,25.39
2023-04-22T16:35:07.310Z,25.38
2023-04-22T16:37:34.231Z,25.40
2023-04-22T16:40:01.183Z,25.39
2023-04-22T16:42:27.792Z,25.36
2023-04-22T16:44:54.390Z,25.42
2023-04-22T16:47:21.010Z,25.41
2023-04-22T16:49:47.587Z,25.24
2023-04-22T16:52:14.144Z,25.41
2023-04-22T16:54:41.010Z,25.43
2023-04-22T16:57:08.189Z,25.44
2023-04-22T16:59:34.804Z,25.45
2023-04-22T17:02:01.426Z,25.44
2023-04-22T17:04:28.269Z,25.38
2023-04-22T17:06:55.073Z,25.44
2023-04-22T17:09:21.809Z,25.38
2023-04-22T17:11:48.380Z,25.27
2023-04-22T17:14:14.977Z,25.42
2023-04-22T17:16:41.575Z,25.45
2023-04-22T17:19:08.172Z,25.39
2023-04-22T17:21:34.907Z,25.40
2023-04-22T17:24:02.265Z,25.34
2023-04-22T17:26:28.910Z,25.19
2023-04-22T17:28:55.555Z,25.35
2023-04-22T17:31:23.402Z,25.34
2023-04-22T17:33:50.078Z,25.37
2023-04-22T17:36:19.496Z,25.37
2023-04-22T17:38:46.856Z,25.37
2023-04-22T17:41:13.602Z,25.34
2023-04-22T17:43:40.767Z,25.36
2023-04-22T17:48:36.560Z,25.37
2023-04-22T17:51:06.480Z,25.39
2023-04-22T17:53:33.956Z,25.41
2023-04-22T17:56:00.557Z,25.34
2023-04-22T17:58:27.411Z,25.40
2023-04-22T18:00:54.099Z,25.32
2023-04-22T18:03:21.132Z,25.45
2023-04-22T18:05:47.848Z,25.43
2023-04-22T18:08:14.604Z,25.42
2023-04-22T18:10:41.280Z,25.41
2023-04-22T18:13:07.898Z,25.34
2023-04-22T18:15:34.573Z,25.39
2023-04-22T18:18:01.395Z,25.37
2023-04-22T18:20:28.101Z,25.34
2023-04-22T18:22:56.346Z,25.45
2023-04-22T18:25:23.125Z,25.42
2023-04-22T18:27:54.871Z,25.44
2023-04-22T18:30:24.976Z,25.47
2023-04-22T18:32:51.679Z,25.48
2023-04-22T18:35:18.554Z,25.62
2023-04-22T18:37:45.516Z,25.61
2023-04-22T18:40:12.427Z,25.60
2023-04-22T18:42:39.096Z,25.50
2023-04-22T18:45:06.391Z,25.50
2023-04-22T18:47:33.063Z,25.42
2023-04-22T18:50:00.204Z,25.48
2023-04-22T18:52:27.129Z,25.47
2023-04-22T18:54:53.775Z,25.34
2023-04-22T18:57:20.446Z,25.54
2023-04-22T18:59:48.416Z,25.46
2023-04-22T19:02:15.102Z,25.56
2023-04-22T19:04:42.073Z,25.55
2023-04-22T19:07:08.944Z,25.47
2023-04-22T19:09:35.818Z,25.58
2023-04-22T19:12:02.422Z,25.35
2023-04-22T19:14:29.104Z,25.47
2023-04-22T19:16:55.679Z,25.55
2023-04-22T19:19:22.283Z,25.56
2023-04-22T19:21:48.823Z,25.52
2023-04-22T19:24:16.133Z,25.47
2023-04-22T19:26:42.830Z,25.54
2023-04-22T19:29:09.627Z,25.60
2023-04-22T19:31:36.242Z,25.54
2023-04-22T19:34:03.199Z,25.62
2023-04-22T19:36:29.788Z,25.54
2023-04-22T19:38:56.358Z,25.64
2023-04-22T19:41:23.963Z,25.63
2023-04-22T19:43:51.239Z,25.64
2023-04-22T19:46:17.939Z,25.66
2023-04-22T19:48:44.808Z,25.63
2023-04-22T19:51:11.473Z,25.58
2023-04-22T19:53:38.246Z,25.62
2023-04-22T19:56:04.899Z,25.53
2023-04-22T19:58:31.510Z,25.41
2023-04-22T20:00:58.322Z,25.60
2023-04-22T20:03:25.362Z,25.60
2023-04-22T20:05:52.128Z,25.58
2023-04-22T20:08:19.532Z,25.53
2023-04-22T20:10:48.035Z,25.56
2023-04-22T20:13:14.729Z,25.53
2023-04-22T20:15:41.512Z,25.50
2023-04-22T20:18:08.465Z,25.34
2023-04-22T20:20:35.137Z,25.52
2023-04-22T20:23:08.876Z,25.52
2023-04-22T20:25:36.525Z,25.53
2023-04-22T20:28:03.829Z,25.49
2023-04-22T20:30:30.623Z,25.39
2023-04-22T20:32:57.641Z,25.49
2023-04-22T20:35:24.846Z,25.36
2023-04-22T20:37:52.909Z,25.47
2023-04-22T20:40:24.102Z,25.31
2023-04-22T20:42:51.326Z,25.47
2023-04-22T20:45:18.179Z,25.33
2023-04-22T20:47:44.861Z,25.40
2023-04-22T20:50:13.124Z,25.35
2023-04-22T20:52:42.931Z,25.43
2023-04-22T20:55:09.809Z,25.43
2023-04-22T20:57:36.571Z,25.40
2023-04-22T21:00:04.347Z,25.39
2023-04-22T21:02:31.174Z,25.35
2023-04-22T21:04:58.768Z,25.43
2023-04-22T21:07:26.387Z,25.40
2023-04-22T21:09:53.115Z,25.41
2023-04-22T21:12:19.981Z,25.41
2023-04-22T21:14:46.937Z,25.40
2023-04-22T21:17:21.622Z,25.42
2023-04-22T21:19:49.386Z,25.38
2023-04-22T21:22:18.986Z,25.29
2023-04-22T21:24:46.355Z,25.39
2023-04-22T21:27:13.032Z,25.39
2023-04-22T21:29:39.838Z,25.33
2023-04-22T21:32:09.762Z,25.38
2023-04-22T21:34:37.405Z,25.29
2023-04-22T21:37:04.700Z,25.37
2023-04-22T21:39:31.302Z,25.38
2023-04-22T21:41:58.390Z,25.19
2023-04-22T21:44:25.080Z,25.34
2023-04-22T21:46:51.730Z,25.35
2023-04-22T21:49:20.386Z,25.34
2023-04-22T21:51:47.048Z,25.28
2023-04-22T21:54:13.820Z,25.34
2023-04-22T21:56:40.443Z,25.29
2023-04-22T21:59:07.047Z,25.31
2023-04-22T22:01:33.783Z,25.27
2023-04-22T22:04:01.043Z,25.34
2023-04-22T22:06:28.494Z,25.22
2023-04-22T22:08:55.455Z,25.15
2023-04-22T22:13:51.905Z,25.28
2023-04-22T22:16:18.980Z,25.22
2023-04-22T22:18:45.807Z,25.11
2023-04-22T22:21:12.837Z,25.30
2023-04-22T22:23:39.420Z,25.21
2023-04-22T22:26:06.147Z,25.30
2023-04-22T22:28:32.769Z,25.27
2023-04-22T22:31:02.341Z,25.28
2023-04-22T22:33:29.473Z,25.29
2023-04-22T22:35:56.124Z,25.26
2023-04-22T22:38:22.723Z,25.19
2023-04-22T22:40:49.302Z,25.28
2023-04-22T22:43:16.140Z,25.28
2023-04-22T22:45:42.794Z,25.28
2023-04-22T22:48:09.454Z,25.07
2023-04-22T22:50:36.131Z,25.07
2023-04-22T22:53:02.863Z,25.22
2023-04-22T22:55:29.418Z,25.26
2023-04-22T22:57:56.067Z,25.27
2023-04-22T23:00:22.612Z,25.18
2023-04-22T23:02:49.468Z,25.24
2023-04-22T23:05:16.180Z,25.06
2023-04-22T23:07:42.832Z,25.15
2023-04-22T23:10:09.537Z,25.24
2023-04-22T23:12:36.324Z,25.25
2023-04-22T23:15:02.936Z,25.24
2023-04-22T23:17:29.726Z,25.21
2023-04-22T23:19:56.517Z,25.24
2023-04-22T23:22:23.352Z,25.08
2023-04-22T23:24:50.318Z,25.17
2023-04-22T23:27:17.459Z,25.20
2023-04-22T23:29:44.338Z,25.17
2023-04-22T23:32:12.137Z,25.20
2023-04-22T23:34:39.000Z,25.22
2023-04-22T23:37:06.123Z,25.17
2023-04-22T23:39:32.713Z,25.10
2023-04-22T23:41:59.224Z,25.07
2023-04-22T23:44:25.867Z,25.11
2023-04-22T23:46:52.622Z,25.13
2023-04-22T23:49:19.518Z,25.13
2023-04-22T23:51:46.444Z,25.09
2023-04-22T23:54:12.977Z,25.12
2023-04-22T23:56:39.842Z,24.89
2023-04-22T23:59:07.110Z,25.13
